sensor_id;sensor_type;location;lat;lon;timestamp;P1;durP1;ratioP1;P2;durP2;ratioP2
19842;SDS011;10082;51.038;6.992;2023-02-14T00:00:33;6.00;;;5.40;;
19842;SDS011;10082;51.038;6.992;2023-02-14T00:03:00;5.30;;;4.80;;
19842;SDS011;10082;51.038;6.992;2023-02-14T00:05:27;5.60;;;5.10;;
19842;SDS011;10082;51.038;6.992;2023-02-14T00:07:54;6.37;;;5.60;;
19842;SDS011;10082;51.038;6.992;2023-02-14T00:10:21;6.17;;;5.23;;
19842;SDS011;10082;51.038;6.992;2023-02-14T00:12:50;6.63;;;5.93;;
19842;SDS011;10082;51.038;6.992;2023-02-14T00:15:17;6.83;;;6.03;;
19842;SDS011;10082;51.038;6.992;2023-02-14T00:17:49;6.53;;;5.67;;
19842;SDS011;10082;51.038;6.992;2023-02-14T00:20:19;6.57;;;5.43;;
19842;SDS011;10082;51.038;6.992;2023-02-14T00:22:46;6.10;;;5.43;;
19842;SDS011;10082;51.038;6.992;2023-02-14T00:25:13;9.10;;;6.60;;
19842;SDS011;10082;51.038;6.992;2023-02-14T00:27:41;6.77;;;6.13;;
19842;SDS011;10082;51.038;6.992;2023-02-14T00:30:11;7.73;;;6.50;;
19842;SDS011;10082;51.038;6.992;2023-02-14T00:32:40;7.17;;;6.47;;
19842;SDS011;10082;51.038;6.992;2023-02-14T00:35:08;6.80;;;5.80;;
19842;SDS011;10082;51.038;6.992;2023-02-14T00:37:39;6.63;;;6.03;;
19842;SDS011;10082;51.038;6.992;2023-02-14T00:40:06;8.13;;;7.10;;
19842;SDS011;10082;51.038;6.992;2023-02-14T00:42:34;7.67;;;6.87;;
19842;SDS011;10082;51.038;6.992;2023-02-14T00:45:01;6.93;;;6.23;;
19842;SDS011;10082;51.038;6.992;2023-02-14T00:47:30;8.00;;;6.57;;
19842;SDS011;10082;51.038;6.992;2023-02-14T00:49:58;8.07;;;6.47;;
19842;SDS011;10082;51.038;6.992;2023-02-14T00:52:27;7.80;;;6.67;;
19842;SDS011;10082;51.038;6.992;2023-02-14T00:54:56;7.53;;;6.40;;
19842;SDS011;10082;51.038;6.992;2023-02-14T00:57:23;7.23;;;6.37;;
19842;SDS011;10082;51.038;6.992;2023-02-14T00:59:51;6.97;;;6.27;;
19842;SDS011;10082;51.038;6.992;2023-02-14T01:02:19;7.43;;;6.73;;
19842;SDS011;10082;51.038;6.992;2023-02-14T01:04:48;7.20;;;6.50;;
19842;SDS011;10082;51.038;6.992;2023-02-14T01:07:15;7.87;;;6.80;;
19842;SDS011;10082;51.038;6.992;2023-02-14T01:09:42;8.10;;;6.90;;
19842;SDS011;10082;51.038;6.992;2023-02-14T01:12:08;7.00;;;6.30;;
19842;SDS011;10082;51.038;6.992;2023-02-14T01:14:35;9.03;;;6.87;;
19842;SDS011;10082;51.038;6.992;2023-02-14T01:17:03;8.93;;;7.30;;
19842;SDS011;10082;51.038;6.992;2023-02-14T01:19:30;8.10;;;7.07;;
19842;SDS011;10082;51.038;6.992;2023-02-14T01:22:00;8.13;;;7.33;;
19842;SDS011;10082;51.038;6.992;2023-02-14T01:24:27;7.60;;;6.77;;
19842;SDS011;10082;51.038;6.992;2023-02-14T01:26:55;7.10;;;6.40;;
19842;SDS011;10082;51.038;6.992;2023-02-14T01:29:22;7.80;;;7.00;;
19842;SDS011;10082;51.038;6.992;2023-02-14T01:31:50;8.27;;;7.17;;
19842;SDS011;10082;51.038;6.992;2023-02-14T01:34:18;7.17;;;6.57;;
19842;SDS011;10082;51.038;6.992;2023-02-14T01:36:45;7.40;;;6.70;;
19842;SDS011;10082;51.038;6.992;2023-02-14T01:39:15;6.73;;;6.13;;
19842;SDS011;10082;51.038;6.992;2023-02-14T01:41:44;6.93;;;6.33;;
19842;SDS011;10082;51.038;6.992;2023-02-14T01:47:18;7.50;;;6.80;;
19842;SDS011;10082;51.038;6.992;2023-02-14T01:49:46;7.53;;;6.80;;
19842;SDS011;10082;51.038;6.992;2023-02-14T01:52:18;7.80;;;7.00;;
19842;SDS011;10082;51.038;6.992;2023-02-14T01:54:50;8.30;;;7.50;;
19842;SDS011;10082;51.038;6.992;2023-02-14T01:57:19;7.93;;;7.20;;
19842;SDS011;10082;51.038;6.992;2023-02-14T01:59:50;7.50;;;6.77;;
19842;SDS011;10082;51.038;6.992;2023-02-14T02:02:42;8.03;;;7.07;;
19842;SDS011;10082;51.038;6.992;2023-02-14T02:05:09;7.83;;;7.03;;
19842;SDS011;10082;51.038;6.992;2023-02-14T02:07:36;7.93;;;7.10;;
19842;SDS011;10082;51.038;6.992;2023-02-14T02:10:06;8.30;;;6.93;;
19842;SDS011;10082;51.038;6.992;2023-02-14T02:12:34;8.10;;;7.30;;
19842;SDS011;10082;51.038;6.992;2023-02-14T02:15:02;8.13;;;7.33;;
19842;SDS011;10082;51.038;6.992;2023-02-14T02:17:32;8.43;;;7.23;;
19842;SDS011;10082;51.038;6.992;2023-02-14T02:23:27;8.87;;;7.97;;
19842;SDS011;10082;51.038;6.992;2023-02-14T02:29:27;8.33;;;7.40;;
19842;SDS011;10082;51.038;6.992;2023-02-14T02:35:12;9.50;;;8.13;;
19842;SDS011;10082;51.038;6.992;2023-02-14T02:37:50;8.87;;;7.97;;
19842;SDS011;10082;51.038;6.992;2023-02-14T02:40:32;8.93;;;8.00;;
19842;SDS011;10082;51.038;6.992;2023-02-14T02:43:14;8.80;;;7.90;;
19842;SDS011;10082;51.038;6.992;2023-02-14T02:45:52;9.53;;;7.70;;
19842;SDS011;10082;51.038;6.992;2023-02-14T02:48:44;8.80;;;7.90;;
19842;SDS011;10082;51.038;6.992;2023-02-14T02:51:25;9.17;;;8.27;;
19842;SDS011;10082;51.038;6.992;2023-02-14T02:54:17;9.43;;;8.30;;
19842;SDS011;10082;51.038;6.992;2023-02-14T02:56:56;10.97;;;8.77;;
19842;SDS011;10082;51.038;6.992;2023-02-14T02:59:28;9.80;;;8.73;;
19842;SDS011;10082;51.038;6.992;2023-02-14T03:02:00;9.50;;;8.50;;
19842;SDS011;10082;51.038;6.992;2023-02-14T03:04:31;8.73;;;7.93;;
19842;SDS011;10082;51.038;6.992;2023-02-14T03:07:19;10.03;;;7.90;;
19842;SDS011;10082;51.038;6.992;2023-02-14T03:10:08;10.03;;;8.97;;
19842;SDS011;10082;51.038;6.992;2023-02-14T03:19:02;9.37;;;8.40;;
19842;SDS011;10082;51.038;6.992;2023-02-14T03:21:51;9.63;;;8.63;;
19842;SDS011;10082;51.038;6.992;2023-02-14T03:24:26;9.40;;;8.50;;
19842;SDS011;10082;51.038;6.992;2023-02-14T03:26:58;10.17;;;9.17;;
19842;SDS011;10082;51.038;6.992;2023-02-14T03:29:33;11.93;;;9.47;;
19842;SDS011;10082;51.038;6.992;2023-02-14T03:32:10;10.67;;;9.57;;
19842;SDS011;10082;51.038;6.992;2023-02-14T03:34:44;10.80;;;9.07;;
19842;SDS011;10082;51.038;6.992;2023-02-14T03:37:16;10.13;;;9.00;;
19842;SDS011;10082;51.038;6.992;2023-02-14T03:39:52;11.03;;;9.17;;
19842;SDS011;10082;51.038;6.992;2023-02-14T03:42:29;12.37;;;9.90;;
19842;SDS011;10082;51.038;6.992;2023-02-14T03:45:01;12.17;;;10.97;;
19842;SDS011;10082;51.038;6.992;2023-02-14T03:47:32;11.60;;;10.17;;
19842;SDS011;10082;51.038;6.992;2023-02-14T03:52:48;11.30;;;10.03;;
19842;SDS011;10082;51.038;6.992;2023-02-14T03:55:21;11.43;;;10.23;;
19842;SDS011;10082;51.038;6.992;2023-02-14T03:57:54;10.77;;;9.67;;
19842;SDS011;10082;51.038;6.992;2023-02-14T04:00:29;11.20;;;9.80;;
19842;SDS011;10082;51.038;6.992;2023-02-14T04:03:01;11.87;;;10.67;;
19842;SDS011;10082;51.038;6.992;2023-02-14T04:05:34;11.43;;;9.80;;
19842;SDS011;10082;51.038;6.992;2023-02-14T04:08:02;11.33;;;9.97;;
19842;SDS011;10082;51.038;6.992;2023-02-14T04:10:36;13.93;;;10.30;;
19842;SDS011;10082;51.038;6.992;2023-02-14T04:13:07;11.63;;;10.43;;
19842;SDS011;10082;51.038;6.992;2023-02-14T04:15:34;12.90;;;11.00;;
19842;SDS011;10082;51.038;6.992;2023-02-14T04:18:01;13.07;;;11.77;;
19842;SDS011;10082;51.038;6.992;2023-02-14T04:20:45;13.13;;;10.37;;
19842;SDS011;10082;51.038;6.992;2023-02-14T04:23:12;14.23;;;12.07;;
19842;SDS011;10082;51.038;6.992;2023-02-14T04:25:41;12.27;;;10.97;;
19842;SDS011;10082;51.038;6.992;2023-02-14T04:28:09;14.33;;;11.47;;
19842;SDS011;10082;51.038;6.992;2023-02-14T04:30:40;14.87;;;12.47;;
19842;SDS011;10082;51.038;6.992;2023-02-14T04:33:07;16.50;;;12.13;;
19842;SDS011;10082;51.038;6.992;2023-02-14T04:35:34;16.73;;;13.50;;
19842;SDS011;10082;51.038;6.992;2023-02-14T04:38:02;15.63;;;13.00;;
19842;SDS011;10082;51.038;6.992;2023-02-14T04:40:30;15.73;;;12.90;;
19842;SDS011;10082;51.038;6.992;2023-02-14T04:42:59;16.13;;;13.17;;
19842;SDS011;10082;51.038;6.992;2023-02-14T04:45:26;17.00;;;12.97;;
19842;SDS011;10082;51.038;6.992;2023-02-14T04:47:53;15.97;;;13.43;;
19842;SDS011;10082;51.038;6.992;2023-02-14T04:50:20;17.70;;;14.10;;
19842;SDS011;10082;51.038;6.992;2023-02-14T04:52:50;18.70;;;13.77;;
19842;SDS011;10082;51.038;6.992;2023-02-14T04:55:17;16.13;;;13.07;;
19842;SDS011;10082;51.038;6.992;2023-02-14T04:57:44;18.60;;;13.63;;
19842;SDS011;10082;51.038;6.992;2023-02-14T05:00:13;19.03;;;14.93;;
19842;SDS011;10082;51.038;6.992;2023-02-14T05:02:40;18.50;;;14.43;;
19842;SDS011;10082;51.038;6.992;2023-02-14T05:05:07;18.97;;;15.23;;
19842;SDS011;10082;51.038;6.992;2023-02-14T05:07:34;18.90;;;14.67;;
19842;SDS011;10082;51.038;6.992;2023-02-14T05:10:01;20.03;;;15.20;;
19842;SDS011;10082;51.038;6.992;2023-02-14T05:12:29;18.93;;;15.20;;
19842;SDS011;10082;51.038;6.992;2023-02-14T05:14:56;18.87;;;14.47;;
19842;SDS011;10082;51.038;6.992;2023-02-14T05:17:24;17.27;;;14.43;;
19842;SDS011;10082;51.038;6.992;2023-02-14T05:19:51;18.43;;;14.80;;
19842;SDS011;10082;51.038;6.992;2023-02-14T05:22:18;19.40;;;15.70;;
19842;SDS011;10082;51.038;6.992;2023-02-14T05:24:46;19.70;;;14.90;;
19842;SDS011;10082;51.038;6.992;2023-02-14T05:27:12;19.43;;;14.87;;
19842;SDS011;10082;51.038;6.992;2023-02-14T05:29:39;21.23;;;16.23;;
19842;SDS011;10082;51.038;6.992;2023-02-14T05:32:06;21.73;;;16.77;;
19842;SDS011;10082;51.038;6.992;2023-02-14T05:34:35;20.83;;;16.17;;
19842;SDS011;10082;51.038;6.992;2023-02-14T05:37:02;21.73;;;16.40;;
19842;SDS011;10082;51.038;6.992;2023-02-14T05:39:29;21.37;;;15.50;;
19842;SDS011;10082;51.038;6.992;2023-02-14T05:41:56;23.57;;;16.90;;
19842;SDS011;10082;51.038;6.992;2023-02-14T05:44:23;21.30;;;15.50;;
19842;SDS011;10082;51.038;6.992;2023-02-14T05:46:50;22.07;;;15.77;;
19842;SDS011;10082;51.038;6.992;2023-02-14T05:49:19;21.93;;;16.70;;
19842;SDS011;10082;51.038;6.992;2023-02-14T05:51:47;21.20;;;15.63;;
19842;SDS011;10082;51.038;6.992;2023-02-14T05:54:15;23.43;;;16.73;;
19842;SDS011;10082;51.038;6.992;2023-02-14T05:56:42;23.90;;;17.23;;
19842;SDS011;10082;51.038;6.992;2023-02-14T05:59:09;26.03;;;16.53;;
19842;SDS011;10082;51.038;6.992;2023-02-14T06:01:38;25.10;;;16.90;;
19842;SDS011;10082;51.038;6.992;2023-02-14T06:04:05;27.33;;;18.70;;
19842;SDS011;10082;51.038;6.992;2023-02-14T06:06:32;23.67;;;17.77;;
19842;SDS011;10082;51.038;6.992;2023-02-14T06:09:01;27.77;;;19.83;;
19842;SDS011;10082;51.038;6.992;2023-02-14T06:11:28;29.27;;;19.93;;
19842;SDS011;10082;51.038;6.992;2023-02-14T06:13:55;27.43;;;19.10;;
19842;SDS011;10082;51.038;6.992;2023-02-14T06:16:22;26.23;;;19.00;;
19842;SDS011;10082;51.038;6.992;2023-02-14T06:18:49;31.00;;;21.23;;
19842;SDS011;10082;51.038;6.992;2023-02-14T06:21:16;31.67;;;21.20;;
19842;SDS011;10082;51.038;6.992;2023-02-14T06:23:43;31.33;;;21.00;;
19842;SDS011;10082;51.038;6.992;2023-02-14T06:26:12;34.40;;;21.63;;
19842;SDS011;10082;51.038;6.992;2023-02-14T06:28:39;33.03;;;21.20;;
19842;SDS011;10082;51.038;6.992;2023-02-14T06:31:06;31.43;;;21.63;;
19842;SDS011;10082;51.038;6.992;2023-02-14T06:33:35;30.43;;;20.60;;
19842;SDS011;10082;51.038;6.992;2023-02-14T06:36:02;31.33;;;20.43;;
19842;SDS011;10082;51.038;6.992;2023-02-14T06:38:29;30.03;;;20.63;;
19842;SDS011;10082;51.038;6.992;2023-02-14T06:41:01;31.90;;;23.90;;
19842;SDS011;10082;51.038;6.992;2023-02-14T06:43:30;36.37;;;22.53;;
19842;SDS011;10082;51.038;6.992;2023-02-14T06:45:57;31.10;;;20.90;;
19842;SDS011;10082;51.038;6.992;2023-02-14T06:48:24;30.47;;;20.33;;
19842;SDS011;10082;51.038;6.992;2023-02-14T06:50:51;29.70;;;20.63;;
19842;SDS011;10082;51.038;6.992;2023-02-14T06:53:18;31.53;;;20.90;;
19842;SDS011;10082;51.038;6.992;2023-02-14T06:55:46;30.27;;;21.10;;
19842;SDS011;10082;51.038;6.992;2023-02-14T06:58:13;31.37;;;20.30;;
19842;SDS011;10082;51.038;6.992;2023-02-14T07:00:42;35.37;;;21.40;;
19842;SDS011;10082;51.038;6.992;2023-02-14T07:03:09;33.10;;;21.70;;
19842;SDS011;10082;51.038;6.992;2023-02-14T07:05:36;32.70;;;21.20;;
19842;SDS011;10082;51.038;6.992;2023-02-14T07:08:04;35.33;;;22.33;;
19842;SDS011;10082;51.038;6.992;2023-02-14T07:10:32;32.93;;;22.73;;
19842;SDS011;10082;51.038;6.992;2023-02-14T07:12:59;35.63;;;23.13;;
19842;SDS011;10082;51.038;6.992;2023-02-14T07:15:26;37.60;;;24.37;;
19842;SDS011;10082;51.038;6.992;2023-02-14T07:17:55;36.50;;;23.93;;
19842;SDS011;10082;51.038;6.992;2023-02-14T07:20:23;38.13;;;25.70;;
19842;SDS011;10082;51.038;6.992;2023-02-14T07:22:50;39.47;;;25.30;;
19842;SDS011;10082;51.038;6.992;2023-02-14T07:25:17;37.63;;;24.27;;
19842;SDS011;10082;51.038;6.992;2023-02-14T07:27:44;39.40;;;25.50;;
19842;SDS011;10082;51.038;6.992;2023-02-14T07:30:12;35.40;;;25.43;;
19842;SDS011;10082;51.038;6.992;2023-02-14T07:32:39;38.97;;;25.90;;
19842;SDS011;10082;51.038;6.992;2023-02-14T07:35:08;44.90;;;28.20;;
19842;SDS011;10082;51.038;6.992;2023-02-14T07:37:36;39.47;;;28.90;;
19842;SDS011;10082;51.038;6.992;2023-02-14T07:40:03;38.07;;;28.07;;
19842;SDS011;10082;51.038;6.992;2023-02-14T07:42:31;26.97;;;21.17;;
19842;SDS011;10082;51.038;6.992;2023-02-14T07:44:58;21.50;;;17.93;;
19842;SDS011;10082;51.038;6.992;2023-02-14T07:47:25;17.60;;;15.70;;
19842;SDS011;10082;51.038;6.992;2023-02-14T07:49:52;16.70;;;14.93;;
19842;SDS011;10082;51.038;6.992;2023-02-14T07:52:21;13.68;;;12.27;;
19842;SDS011;10082;51.038;6.992;2023-02-14T07:54:48;13.85;;;12.25;;
19842;SDS011;10082;51.038;6.992;2023-02-14T07:57:20;14.35;;;12.25;;
19842;SDS011;10082;51.038;6.992;2023-02-14T07:59:47;13.07;;;11.23;;
19842;SDS011;10082;51.038;6.992;2023-02-14T08:02:14;12.88;;;11.43;;
19842;SDS011;10082;51.038;6.992;2023-02-14T08:04:41;12.55;;;11.02;;
19842;SDS011;10082;51.038;6.992;2023-02-14T08:07:08;12.98;;;11.68;;
19842;SDS011;10082;51.038;6.992;2023-02-14T08:09:36;13.73;;;11.85;;
19842;SDS011;10082;51.038;6.992;2023-02-14T08:12:03;12.00;;;10.02;;
19842;SDS011;10082;51.038;6.992;2023-02-14T08:14:47;14.88;;;9.88;;
19842;SDS011;10082;51.038;6.992;2023-02-14T08:17:15;12.30;;;9.93;;
19842;SDS011;10082;51.038;6.992;2023-02-14T08:19:42;12.02;;;10.30;;
19842;SDS011;10082;51.038;6.992;2023-02-14T08:22:09;14.15;;;11.00;;
19842;SDS011;10082;51.038;6.992;2023-02-14T08:24:37;12.45;;;11.13;;
19842;SDS011;10082;51.038;6.992;2023-02-14T08:27:04;12.50;;;11.15;;
19842;SDS011;10082;51.038;6.992;2023-02-14T08:29:31;13.43;;;11.40;;
19842;SDS011;10082;51.038;6.992;2023-02-14T08:31:58;12.77;;;11.05;;
19842;SDS011;10082;51.038;6.992;2023-02-14T08:34:25;12.57;;;11.02;;
19842;SDS011;10082;51.038;6.992;2023-02-14T08:36:53;13.55;;;10.77;;
19842;SDS011;10082;51.038;6.992;2023-02-14T08:39:20;13.90;;;11.60;;
19842;SDS011;10082;51.038;6.992;2023-02-14T08:41:48;13.32;;;10.93;;
19842;SDS011;10082;51.038;6.992;2023-02-14T08:44:15;13.75;;;10.48;;
19842;SDS011;10082;51.038;6.992;2023-02-14T08:46:42;13.40;;;10.40;;
19842;SDS011;10082;51.038;6.992;2023-02-14T08:49:10;13.88;;;10.88;;
19842;SDS011;10082;51.038;6.992;2023-02-14T08:54:13;12.38;;;10.55;;
19842;SDS011;10082;51.038;6.992;2023-02-14T08:56:40;12.18;;;9.48;;
19842;SDS011;10082;51.038;6.992;2023-02-14T08:59:08;15.43;;;10.95;;
19842;SDS011;10082;51.038;6.992;2023-02-14T09:01:36;12.57;;;10.48;;
19842;SDS011;10082;51.038;6.992;2023-02-14T09:04:03;12.98;;;10.45;;
19842;SDS011;10082;51.038;6.992;2023-02-14T09:06:30;12.55;;;10.77;;
19842;SDS011;10082;51.038;6.992;2023-02-14T09:08:57;14.32;;;11.00;;
19842;SDS011;10082;51.038;6.992;2023-02-14T09:11:24;15.55;;;11.32;;
19842;SDS011;10082;51.038;6.992;2023-02-14T09:13:51;12.50;;;10.35;;
19842;SDS011;10082;51.038;6.992;2023-02-14T09:16:20;14.38;;;11.25;;
19842;SDS011;10082;51.038;6.992;2023-02-14T09:18:49;12.98;;;10.15;;
19842;SDS011;10082;51.038;6.992;2023-02-14T09:21:18;14.35;;;10.98;;
19842;SDS011;10082;51.038;6.992;2023-02-14T09:23:47;12.45;;;10.70;;
19842;SDS011;10082;51.038;6.992;2023-02-14T09:26:14;13.63;;;11.05;;
19842;SDS011;10082;51.038;6.992;2023-02-14T09:28:42;13.48;;;10.57;;
19842;SDS011;10082;51.038;6.992;2023-02-14T09:31:10;13.63;;;10.35;;
19842;SDS011;10082;51.038;6.992;2023-02-14T09:33:41;14.50;;;10.75;;
19842;SDS011;10082;51.038;6.992;2023-02-14T09:36:26;14.68;;;10.75;;
19842;SDS011;10082;51.038;6.992;2023-02-14T09:39:10;13.13;;;10.80;;
19842;SDS011;10082;51.038;6.992;2023-02-14T09:41:44;13.77;;;10.43;;
19842;SDS011;10082;51.038;6.992;2023-02-14T09:44:23;11.82;;;10.20;;
19842;SDS011;10082;51.038;6.992;2023-02-14T09:46:58;12.82;;;10.73;;
19842;SDS011;10082;51.038;6.992;2023-02-14T09:49:33;12.63;;;10.88;;
19842;SDS011;10082;51.038;6.992;2023-02-14T09:52:04;11.80;;;10.27;;
19842;SDS011;10082;51.038;6.992;2023-02-14T09:54:37;17.10;;;11.15;;
19842;SDS011;10082;51.038;6.992;2023-02-14T09:57:10;12.63;;;11.07;;
19842;SDS011;10082;51.038;6.992;2023-02-14T09:59:44;13.60;;;11.73;;
19842;SDS011;10082;51.038;6.992;2023-02-14T10:05:08;12.85;;;11.45;;
19842;SDS011;10082;51.038;6.992;2023-02-14T10:07:42;13.95;;;11.00;;
19842;SDS011;10082;51.038;6.992;2023-02-14T10:10:21;13.80;;;11.07;;
19842;SDS011;10082;51.038;6.992;2023-02-14T10:12:55;13.57;;;10.98;;
19842;SDS011;10082;51.038;6.992;2023-02-14T10:15:31;12.30;;;10.70;;
19842;SDS011;10082;51.038;6.992;2023-02-14T10:18:01;13.23;;;10.93;;
19842;SDS011;10082;51.038;6.992;2023-02-14T10:20:36;14.65;;;11.85;;
19842;SDS011;10082;51.038;6.992;2023-02-14T10:23:11;12.60;;;10.60;;
19842;SDS011;10082;51.038;6.992;2023-02-14T10:25:50;14.00;;;11.15;;
19842;SDS011;10082;51.038;6.992;2023-02-14T10:28:24;12.82;;;10.48;;
19842;SDS011;10082;51.038;6.992;2023-02-14T10:30:59;12.93;;;10.25;;
19842;SDS011;10082;51.038;6.992;2023-02-14T10:33:37;14.18;;;11.48;;
19842;SDS011;10082;51.038;6.992;2023-02-14T10:36:13;13.35;;;10.88;;
19842;SDS011;10082;51.038;6.992;2023-02-14T10:38:51;13.98;;;11.45;;
19842;SDS011;10082;51.038;6.992;2023-02-14T10:41:26;12.48;;;10.93;;
19842;SDS011;10082;51.038;6.992;2023-02-14T10:44:02;13.23;;;10.75;;
19842;SDS011;10082;51.038;6.992;2023-02-14T10:46:41;13.13;;;11.73;;
19842;SDS011;10082;51.038;6.992;2023-02-14T10:49:20;13.02;;;11.30;;
19842;SDS011;10082;51.038;6.992;2023-02-14T10:51:58;14.00;;;11.68;;
19842;SDS011;10082;51.038;6.992;2023-02-14T10:54:34;12.88;;;10.70;;
19842;SDS011;10082;51.038;6.992;2023-02-14T10:57:11;12.45;;;10.65;;
19842;SDS011;10082;51.038;6.992;2023-02-14T10:59:45;13.15;;;11.10;;
19842;SDS011;10082;51.038;6.992;2023-02-14T11:02:17;12.85;;;10.43;;
19842;SDS011;10082;51.038;6.992;2023-02-14T11:04:47;14.15;;;11.05;;
19842;SDS011;10082;51.038;6.992;2023-02-14T11:07:17;13.82;;;11.63;;
19842;SDS011;10082;51.038;6.992;2023-02-14T11:09:46;12.25;;;10.65;;
19842;SDS011;10082;51.038;6.992;2023-02-14T11:18:07;12.73;;;10.32;;
19842;SDS011;10082;51.038;6.992;2023-02-14T11:20:41;11.70;;;10.05;;
19842;SDS011;10082;51.038;6.992;2023-02-14T11:23:20;13.23;;;10.88;;
19842;SDS011;10082;51.038;6.992;2023-02-14T11:25:49;12.15;;;9.80;;
19842;SDS011;10082;51.038;6.992;2023-02-14T11:31:05;12.93;;;10.07;;
19842;SDS011;10082;51.038;6.992;2023-02-14T11:33:36;11.30;;;9.82;;
19842;SDS011;10082;51.038;6.992;2023-02-14T11:36:08;13.05;;;10.18;;
19842;SDS011;10082;51.038;6.992;2023-02-14T11:38:40;12.18;;;9.27;;
19842;SDS011;10082;51.038;6.992;2023-02-14T11:41:09;12.82;;;10.00;;
19842;SDS011;10082;51.038;6.992;2023-02-14T11:43:39;12.02;;;9.48;;
19842;SDS011;10082;51.038;6.992;2023-02-14T11:46:16;13.25;;;10.30;;
19842;SDS011;10082;51.038;6.992;2023-02-14T11:48:56;12.10;;;9.40;;
19842;SDS011;10082;51.038;6.992;2023-02-14T11:51:26;12.45;;;9.82;;
19842;SDS011;10082;51.038;6.992;2023-02-14T11:53:57;12.48;;;9.80;;
19842;SDS011;10082;51.038;6.992;2023-02-14T11:59:23;12.82;;;9.93;;
19842;SDS011;10082;51.038;6.992;2023-02-14T12:01:55;11.50;;;9.13;;
19842;SDS011;10082;51.038;6.992;2023-02-14T12:04:26;12.50;;;9.85;;
19842;SDS011;10082;51.038;6.992;2023-02-14T12:07:11;13.85;;;10.25;;
19842;SDS011;10082;51.038;6.992;2023-02-14T12:09:42;13.13;;;9.82;;
19842;SDS011;10082;51.038;6.992;2023-02-14T12:12:15;12.18;;;9.50;;
19842;SDS011;10082;51.038;6.992;2023-02-14T12:14:43;12.63;;;9.43;;
19842;SDS011;10082;51.038;6.992;2023-02-14T12:19:57;13.02;;;10.48;;
19842;SDS011;10082;51.038;6.992;2023-02-14T12:22:28;10.93;;;8.65;;
19842;SDS011;10082;51.038;6.992;2023-02-14T12:25:02;13.27;;;9.63;;
19842;SDS011;10082;51.038;6.992;2023-02-14T12:27:38;11.23;;;8.98;;
19842;SDS011;10082;51.038;6.992;2023-02-14T12:30:11;13.27;;;9.20;;
19842;SDS011;10082;51.038;6.992;2023-02-14T12:32:44;10.82;;;8.40;;
19842;SDS011;10082;51.038;6.992;2023-02-14T12:35:15;10.52;;;8.80;;
19842;SDS011;10082;51.038;6.992;2023-02-14T12:37:46;11.25;;;9.52;;
19842;SDS011;10082;51.038;6.992;2023-02-14T12:40:24;13.00;;;9.48;;
19842;SDS011;10082;51.038;6.992;2023-02-14T12:43:14;11.07;;;8.52;;
19842;SDS011;10082;51.038;6.992;2023-02-14T12:45:58;11.68;;;8.80;;
19842;SDS011;10082;51.038;6.992;2023-02-14T12:48:48;12.40;;;9.63;;
19842;SDS011;10082;51.038;6.992;2023-02-14T12:51:29;11.32;;;8.93;;
19842;SDS011;10082;51.038;6.992;2023-02-14T12:54:01;11.80;;;8.90;;
19842;SDS011;10082;51.038;6.992;2023-02-14T12:56:43;11.43;;;9.75;;
19842;SDS011;10082;51.038;6.992;2023-02-14T12:59:22;11.00;;;9.20;;
19842;SDS011;10082;51.038;6.992;2023-02-14T13:02:11;11.35;;;9.65;;
19842;SDS011;10082;51.038;6.992;2023-02-14T13:05:04;13.25;;;9.02;;
19842;SDS011;10082;51.038;6.992;2023-02-14T13:07:45;10.13;;;8.93;;
19842;SDS011;10082;51.038;6.992;2023-02-14T13:10:38;11.93;;;9.25;;
19842;SDS011;10082;51.038;6.992;2023-02-14T13:13:19;11.07;;;8.82;;
19842;SDS011;10082;51.038;6.992;2023-02-14T13:15:54;10.77;;;8.80;;
19842;SDS011;10082;51.038;6.992;2023-02-14T13:18:35;13.20;;;9.77;;
19842;SDS011;10082;51.038;6.992;2023-02-14T13:21:09;10.98;;;9.40;;
19842;SDS011;10082;51.038;6.992;2023-02-14T13:23:41;12.52;;;9.55;;
19842;SDS011;10082;51.038;6.992;2023-02-14T13:26:11;11.23;;;8.70;;
19842;SDS011;10082;51.038;6.992;2023-02-14T13:28:44;11.88;;;8.57;;
19842;SDS011;10082;51.038;6.992;2023-02-14T13:31:16;11.30;;;8.60;;
19842;SDS011;10082;51.038;6.992;2023-02-14T13:33:45;11.15;;;9.65;;
19842;SDS011;10082;51.038;6.992;2023-02-14T13:36:16;11.68;;;9.75;;
19842;SDS011;10082;51.038;6.992;2023-02-14T13:38:47;11.43;;;9.00;;
19842;SDS011;10082;51.038;6.992;2023-02-14T13:41:16;10.18;;;8.02;;
19842;SDS011;10082;51.038;6.992;2023-02-14T13:43:49;10.27;;;8.38;;
19842;SDS011;10082;51.038;6.992;2023-02-14T13:46:20;9.60;;;8.43;;
19842;SDS011;10082;51.038;6.992;2023-02-14T13:49:13;11.60;;;9.25;;
19842;SDS011;10082;51.038;6.992;2023-02-14T13:51:50;11.20;;;9.07;;
19842;SDS011;10082;51.038;6.992;2023-02-14T13:54:19;11.73;;;9.20;;
19842;SDS011;10082;51.038;6.992;2023-02-14T13:56:58;12.88;;;9.75;;
19842;SDS011;10082;51.038;6.992;2023-02-14T13:59:28;11.88;;;9.50;;
19842;SDS011;10082;51.038;6.992;2023-02-14T14:14:28;12.73;;;8.98;;
19842;SDS011;10082;51.038;6.992;2023-02-14T14:17:00;11.65;;;8.38;;
19842;SDS011;10082;51.038;6.992;2023-02-14T14:19:36;10.93;;;8.77;;
19842;SDS011;10082;51.038;6.992;2023-02-14T14:22:06;10.82;;;8.18;;
19842;SDS011;10082;51.038;6.992;2023-02-14T14:24:34;11.52;;;9.25;;
19842;SDS011;10082;51.038;6.992;2023-02-14T14:27:03;11.13;;;9.05;;
19842;SDS011;10082;51.038;6.992;2023-02-14T14:29:43;10.93;;;9.20;;
19842;SDS011;10082;51.038;6.992;2023-02-14T14:32:16;12.32;;;9.43;;
19842;SDS011;10082;51.038;6.992;2023-02-14T14:34:49;10.60;;;8.43;;
19842;SDS011;10082;51.038;6.992;2023-02-14T14:37:18;10.80;;;8.55;;
19842;SDS011;10082;51.038;6.992;2023-02-14T14:39:50;11.45;;;8.82;;
19842;SDS011;10082;51.038;6.992;2023-02-14T14:42:18;10.63;;;8.50;;
19842;SDS011;10082;51.038;6.992;2023-02-14T14:44:48;10.00;;;8.02;;
19842;SDS011;10082;51.038;6.992;2023-02-14T14:47:19;10.88;;;8.85;;
19842;SDS011;10082;51.038;6.992;2023-02-14T14:49:48;11.70;;;9.10;;
19842;SDS011;10082;51.038;6.992;2023-02-14T14:52:30;9.95;;;8.05;;
19842;SDS011;10082;51.038;6.992;2023-02-14T14:55:01;10.43;;;8.13;;
19842;SDS011;10082;51.038;6.992;2023-02-14T14:57:29;10.85;;;8.15;;
19842;SDS011;10082;51.038;6.992;2023-02-14T15:00:15;9.60;;;7.80;;
19842;SDS011;10082;51.038;6.992;2023-02-14T15:02:55;9.50;;;8.00;;
19842;SDS011;10082;51.038;6.992;2023-02-14T15:05:28;10.30;;;8.40;;
19842;SDS011;10082;51.038;6.992;2023-02-14T15:07:57;10.60;;;7.82;;
19842;SDS011;10082;51.038;6.992;2023-02-14T15:10:37;8.95;;;7.38;;
19842;SDS011;10082;51.038;6.992;2023-02-14T15:13:07;9.38;;;7.30;;
19842;SDS011;10082;51.038;6.992;2023-02-14T15:15:56;8.90;;;7.15;;
19842;SDS011;10082;51.038;6.992;2023-02-14T15:18:24;8.07;;;6.97;;
19842;SDS011;10082;51.038;6.992;2023-02-14T15:20:51;11.68;;;7.70;;
19842;SDS011;10082;51.038;6.992;2023-02-14T15:23:20;11.32;;;7.63;;
19842;SDS011;10082;51.038;6.992;2023-02-14T15:25:48;8.40;;;7.40;;
19842;SDS011;10082;51.038;6.992;2023-02-14T15:28:25;9.77;;;7.53;;
19842;SDS011;10082;51.038;6.992;2023-02-14T15:30:58;9.07;;;7.25;;
19842;SDS011;10082;51.038;6.992;2023-02-14T15:33:28;8.77;;;7.18;;
19842;SDS011;10082;51.038;6.992;2023-02-14T15:35:56;9.63;;;7.70;;
19842;SDS011;10082;51.038;6.992;2023-02-14T15:38:27;10.77;;;8.07;;
19842;SDS011;10082;51.038;6.992;2023-02-14T15:40:55;8.85;;;7.15;;
19842;SDS011;10082;51.038;6.992;2023-02-14T15:43:26;9.15;;;7.20;;
19842;SDS011;10082;51.038;6.992;2023-02-14T15:45:58;11.18;;;7.63;;
19842;SDS011;10082;51.038;6.992;2023-02-14T15:48:38;9.13;;;7.57;;